Time;durP1;ratioP1;P1;durP2;ratioP2;P2;SDS_P1;SDS_P2;PMS_P1;PMS_P2;Temp;Humidity;BMP_temperature;BMP_pressure;BME280_temperature;BME280_humidity;BME280_pressure;Samples;Min_cycle;Max_cycle;Signal;HPM_P1;HPM_P2
2023/05/14 00:02:01;;;;;;;5.30;4.15;;;;;;;;;;5284539;28;20534;-70
2023/05/14 00:04:32;;;;;;;5.57;4.10;;;;;;;;;;5284498;28;20044;-70
2023/05/14 00:07:04;;;;;;;5.40;3.67;;;;;;;;;;5283549;28;20025;-70
2023/05/14 00:09:35;;;;;;;7.72;4.47;;;;;;;;;;5284608;28;20283;-70
2023/05/14 00:12:06;;;;;;;6.80;4.03;;;;;;;;;;5284451;28;20024;-70
2023/05/14 00:14:37;;;;;;;7.40;4.32;;;;;;;;;;5283261;28;20021;-70
2023/05/14 00:17:09;;;;;;;8.40;4.40;;;;;;;;;;5284399;28;20021;-70
2023/05/14 00:19:40;;;;;;;8.35;5.13;;;;;;;;;;5283554;28;20295;-71
2023/05/14 00:22:12;;;;;;;4.57;4.15;;;;;;;;;;5283543;28;20059;-70
2023/05/14 00:24:43;;;;;;;4.80;4.38;;;;;;;;;;5283884;28;20537;-70
2023/05/14 00:27:14;;;;;;;5.80;4.78;;;;;;;;;;5283446;28;20021;-70
2023/05/14 00:29:45;;;;;;;6.32;5.20;;;;;;;;;;5283415;28;20035;-70
2023/05/14 00:32:17;;;;;;;6.60;5.05;;;;;;;;;;5284431;28;20017;-70
2023/05/14 00:34:48;;;;;;;7.70;5.07;;;;;;;;;;5282444;28;20279;-70
2023/05/14 00:37:19;;;;;;;7.22;5.10;;;;;;;;;;5284270;28;20020;-70
2023/05/14 00:39:50;;;;;;;8.80;6.03;;;;;;;;;;5283359;28;20032;-70
2023/05/14 00:42:21;;;;;;;7.28;5.65;;;;;;;;;;5283061;28;20023;-69
2023/05/14 00:44:53;;;;;;;6.68;5.32;;;;;;;;;;5283431;28;20020;-69
2023/05/14 00:47:24;;;;;;;6.80;5.72;;;;;;;;;;5283916;28;20093;-69
2023/05/14 00:49:55;;;;;;;7.35;6.63;;;;;;;;;;5282238;28;20016;-70
2023/05/14 00:52:26;;;;;;;8.80;5.88;;;;;;;;;;5283693;28;20013;-69
2023/05/14 00:54:58;;;;;;;6.57;6.03;;;;;;;;;;5283021;28;20021;-69
2023/05/14 00:57:29;;;;;;;8.05;6.00;;;;;;;;;;5282463;28;20322;-70
2023/05/14 01:00:01;;;;;;;7.50;6.35;;;;;;;;;;5282511;28;20040;-69
2023/05/14 01:02:32;;;;;;;6.97;6.03;;;;;;;;;;5282343;28;20463;-70
2023/05/14 01:05:03;;;;;;;7.67;6.30;;;;;;;;;;5283140;28;20498;-69
2023/05/14 01:07:38;;;;;;;7.22;6.22;;;;;;;;;;5283053;28;20574;-70
2023/05/14 01:10:41;;;;;;;7.47;6.03;;;;;;;;;;5282694;28;20024;-69
2023/05/14 01:13:21;;;;;;;9.13;6.35;;;;;;;;;;5260136;28;20111;-69
2023/05/14 01:15:55;;;;;;;8.15;7.35;;;;;;;;;;5282383;28;20016;-69
2023/05/14 01:18:26;;;;;;;8.27;6.50;;;;;;;;;;5282451;28;20032;-69
2023/05/14 01:20:58;;;;;;;7.88;7.07;;;;;;;;;;5282536;28;20029;-69
2023/05/14 01:23:29;;;;;;;7.00;6.22;;;;;;;;;;5282136;28;20086;-70
2023/05/14 01:26:00;;;;;;;9.48;7.50;;;;;;;;;;5282709;28;20357;-69
2023/05/14 01:28:33;;;;;;;7.57;6.72;;;;;;;;;;5282885;28;20051;-69
2023/05/14 01:31:10;;;;;;;8.02;7.22;;;;;;;;;;5281949;28;20464;-70
2023/05/14 01:33:42;;;;;;;10.70;6.50;;;;;;;;;;5282231;28;20048;-70
2023/05/14 01:36:13;;;;;;;8.40;7.57;;;;;;;;;;5282723;28;20044;-70
2023/05/14 01:38:46;;;;;;;9.25;8.23;;;;;;;;;;5281249;28;20040;-70
2023/05/14 01:41:18;;;;;;;9.40;8.43;;;;;;;;;;5282831;28;20341;-69
2023/05/14 01:43:50;;;;;;;10.38;8.68;;;;;;;;;;5282262;28;20497;-69
2023/05/14 01:46:23;;;;;;;10.52;8.50;;;;;;;;;;5281840;28;20021;-69
2023/05/14 01:48:55;;;;;;;9.32;8.25;;;;;;;;;;5281898;28;20017;-69
2023/05/14 01:51:26;;;;;;;12.63;8.45;;;;;;;;;;5282047;28;20103;-70
2023/05/14 01:53:57;;;;;;;13.98;9.02;;;;;;;;;;5282170;28;20844;-70
2023/05/14 01:56:28;;;;;;;9.32;8.38;;;;;;;;;;5282546;28;20070;-70
2023/05/14 01:58:59;;;;;;;15.00;8.87;;;;;;;;;;5280829;28;20102;-70
2023/05/14 02:01:30;;;;;;;11.40;10.00;;;;;;;;;;5282053;28;20362;-70
2023/05/14 02:04:02;;;;;;;10.18;9.05;;;;;;;;;;5282150;28;20309;-70
2023/05/14 02:06:33;;;;;;;9.63;8.65;;;;;;;;;;5281386;28;20051;-70
2023/05/14 02:09:04;;;;;;;10.77;8.80;;;;;;;;;;5281976;28;20078;-70
2023/05/14 02:11:35;;;;;;;11.80;8.85;;;;;;;;;;5281998;28;20025;-70
2023/05/14 02:14:06;;;;;;;10.02;8.70;;;;;;;;;;5281236;28;20038;-70
2023/05/14 02:16:37;;;;;;;11.05;8.68;;;;;;;;;;5281835;28;20285;-71
2023/05/14 02:19:09;;;;;;;10.13;9.13;;;;;;;;;;5282102;28;20299;-70
2023/05/14 02:21:40;;;;;;;12.25;9.70;;;;;;;;;;5280858;28;20259;-70
2023/05/14 02:24:11;;;;;;;12.47;8.97;;;;;;;;;;5282098;28;20048;-69
2023/05/14 02:26:42;;;;;;;10.20;9.20;;;;;;;;;;5280635;28;20273;-71
2023/05/14 02:29:13;;;;;;;10.88;9.88;;;;;;;;;;5282140;28;20021;-70
2023/05/14 02:31:45;;;;;;;14.47;9.53;;;;;;;;;;5281535;28;20259;-70
2023/05/14 02:34:16;;;;;;;11.50;10.35;;;;;;;;;;5281261;28;20271;-70
2023/05/14 02:36:47;;;;;;;13.18;10.18;;;;;;;;;;5281261;28;20270;-71
2023/05/14 02:39:18;;;;;;;11.30;9.60;;;;;;;;;;5282097;28;20028;-70
2023/05/14 02:41:49;;;;;;;10.00;9.10;;;;;;;;;;5280718;28;20017;-70
2023/05/14 02:44:20;;;;;;;11.23;10.05;;;;;;;;;;5281874;28;20345;-70
2023/05/14 02:46:52;;;;;;;10.48;9.48;;;;;;;;;;5281282;28;20472;-70
2023/05/14 02:49:23;;;;;;;14.35;10.60;;;;;;;;;;5281022;28;20024;-70
2023/05/14 02:51:54;;;;;;;14.93;10.27;;;;;;;;;;5281474;28;20043;-70
2023/05/14 02:54:25;;;;;;;11.40;10.27;;;;;;;;;;5282064;28;20270;-70
2023/05/14 02:56:56;;;;;;;10.75;9.93;;;;;;;;;;5280376;28;20032;-70
2023/05/14 02:59:28;;;;;;;10.67;9.70;;;;;;;;;;5281881;28;20491;-70
2023/05/14 03:01:59;;;;;;;14.82;10.73;;;;;;;;;;5280381;28;20321;-70
2023/05/14 03:04:30;;;;;;;12.17;9.67;;;;;;;;;;5281592;28;20017;-70
2023/05/14 03:07:02;;;;;;;11.07;9.97;;;;;;;;;;5281525;28;20273;-70
2023/05/14 03:09:33;;;;;;;13.05;10.98;;;;;;;;;;5280727;28;20266;-70
2023/05/14 03:12:04;;;;;;;12.90;11.55;;;;;;;;;;5281220;28;20111;-70
2023/05/14 03:14:35;;;;;;;13.18;10.98;;;;;;;;;;5281216;28;20459;-70
2023/05/14 03:17:07;;;;;;;11.63;10.23;;;;;;;;;;5280520;28;20020;-70
2023/05/14 03:19:38;;;;;;;13.07;11.82;;;;;;;;;;5281008;28;20025;-71
2023/05/14 03:22:09;;;;;;;12.45;10.75;;;;;;;;;;5283172;28;20015;-70
2023/05/14 03:24:40;;;;;;;11.70;10.48;;;;;;;;;;5284046;28;20266;-71
2023/05/14 03:27:11;;;;;;;12.23;11.02;;;;;;;;;;5285590;28;20501;-70
2023/05/14 03:29:42;;;;;;;12.82;11.60;;;;;;;;;;5284937;28;20108;-70
2023/05/14 03:32:14;;;;;;;11.88;10.68;;;;;;;;;;5284603;28;20020;-71
2023/05/14 03:34:45;;;;;;;12.95;11.57;;;;;;;;;;5284589;28;20020;-70
2023/05/14 03:37:16;;;;;;;13.02;11.68;;;;;;;;;;5284387;28;20099;-70
2023/05/14 03:39:47;;;;;;;12.73;11.43;;;;;;;;;;5284580;28;20044;-70
2023/05/14 03:42:18;;;;;;;13.15;11.77;;;;;;;;;;5285051;28;20020;-71
2023/05/14 03:44:50;;;;;;;13.10;11.80;;;;;;;;;;5283660;28;20439;-70
2023/05/14 03:47:21;;;;;;;13.97;12.43;;;;;;;;;;5284993;28;20266;-70
2023/05/14 03:49:52;;;;;;;13.27;11.80;;;;;;;;;;5284035;28;20306;-70
2023/05/14 03:52:23;;;;;;;13.88;12.48;;;;;;;;;;5284238;28;20263;-70
2023/05/14 03:54:54;;;;;;;15.10;12.57;;;;;;;;;;5284431;28;20044;-70
2023/05/14 03:57:26;;;;;;;14.63;13.13;;;;;;;;;;5284761;28;20399;-70
2023/05/14 03:59:57;;;;;;;17.98;13.25;;;;;;;;;;5283149;28;20506;-70
2023/05/14 04:02:28;;;;;;;15.45;13.77;;;;;;;;;;5284560;28;20019;-70
2023/05/14 04:04:59;;;;;;;14.88;13.38;;;;;;;;;;5283343;28;20028;-70
2023/05/14 04:07:30;;;;;;;15.18;13.68;;;;;;;;;;5284113;28;20023;-70
2023/05/14 04:10:02;;;;;;;16.58;12.98;;;;;;;;;;5284286;28;20509;-70
2023/05/14 04:12:34;;;;;;;16.05;14.45;;;;;;;;;;5283463;28;20431;-70
2023/05/14 04:15:05;;;;;;;16.13;13.70;;;;;;;;;;5284335;28;20093;-70
2023/05/14 04:17:36;;;;;;;15.27;13.65;;;;;;;;;;5284306;28;20040;-70
2023/05/14 04:20:08;;;;;;;14.48;12.98;;;;;;;;;;5283300;28;20032;-70
2023/05/14 04:22:39;;;;;;;15.15;13.68;;;;;;;;;;5283751;28;20020;-71
2023/05/14 04:25:10;;;;;;;15.20;13.63;;;;;;;;;;5284416;28;20039;-70
2023/05/14 04:27:42;;;;;;;14.38;12.98;;;;;;;;;;5282873;28;20259;-70
2023/05/14 04:30:13;;;;;;;20.42;14.63;;;;;;;;;;5284342;28;20043;-70
2023/05/14 04:32:44;;;;;;;14.43;13.05;;;;;;;;;;5282709;28;20013;-70
2023/05/14 04:35:15;;;;;;;16.33;14.83;;;;;;;;;;5282805;28;20016;-70
2023/05/14 04:37:47;;;;;;;14.65;13.35;;;;;;;;;;5283190;28;20267;-70
2023/05/14 04:40:19;;;;;;;15.70;14.30;;;;;;;;;;5283238;28;20032;-70
2023/05/14 04:42:50;;;;;;;19.05;15.38;;;;;;;;;;5283283;28;20363;-70
2023/05/14 04:45:21;;;;;;;15.77;14.07;;;;;;;;;;5284257;28;20028;-70
2023/05/14 04:47:52;;;;;;;14.65;13.35;;;;;;;;;;5282427;28;20467;-70
2023/05/14 04:50:23;;;;;;;15.55;13.82;;;;;;;;;;5283722;28;20055;-70
2023/05/14 04:52:55;;;;;;;15.48;13.68;;;;;;;;;;5282974;28;20262;-70
2023/05/14 04:55:26;;;;;;;15.15;13.68;;;;;;;;;;5283011;28;20506;-70
2023/05/14 04:57:57;;;;;;;15.85;14.35;;;;;;;;;;5282830;28;20433;-70
2023/05/14 05:00:29;;;;;;;13.85;12.50;;;;;;;;;;5283529;28;20056;-70
2023/05/14 05:03:00;;;;;;;15.82;14.25;;;;;;;;;;5282311;28;20266;-70
2023/05/14 05:05:31;;;;;;;16.88;13.40;;;;;;;;;;5283111;28;20107;-70
2023/05/14 05:08:02;;;;;;;14.63;13.20;;;;;;;;;;5283259;28;20414;-70
2023/05/14 05:10:34;;;;;;;15.77;12.05;;;;;;;;;;5282299;28;20263;-70
2023/05/14 05:13:05;;;;;;;15.13;12.82;;;;;;;;;;5282988;28;20099;-70
2023/05/14 05:15:36;;;;;;;14.75;12.32;;;;;;;;;;5282256;28;20199;-70
2023/05/14 05:18:07;;;;;;;13.50;12.30;;;;;;;;;;5282903;28;20028;-69
2023/05/14 05:20:39;;;;;;;13.98;12.50;;;;;;;;;;5282493;28;20274;-70
2023/05/14 05:23:10;;;;;;;14.27;12.80;;;;;;;;;;5282158;28;20111;-70
2023/05/14 05:25:41;;;;;;;14.95;12.77;;;;;;;;;;5281710;28;20536;-70
2023/05/14 05:28:12;;;;;;;12.90;11.60;;;;;;;;;;5283043;28;20016;-70
2023/05/14 05:30:44;;;;;;;13.88;12.45;;;;;;;;;;5281642;28;20273;-70
2023/05/14 05:33:15;;;;;;;13.57;12.18;;;;;;;;;;5282859;28;20028;-70
2023/05/14 05:35:47;;;;;;;12.32;11.13;;;;;;;;;;5281785;28;20021;-70
2023/05/14 05:38:18;;;;;;;13.93;12.63;;;;;;;;;;5279167;28;20483;-70
2023/05/14 05:40:49;;;;;;;13.82;12.32;;;;;;;;;;5280204;28;20417;-70
2023/05/14 05:43:20;;;;;;;13.40;11.82;;;;;;;;;;5280529;28;20008;-70
2023/05/14 05:45:51;;;;;;;12.90;11.65;;;;;;;;;;5278860;28;20016;-70
2023/05/14 05:48:23;;;;;;;14.47;12.27;;;;;;;;;;5280896;28;20020;-70
2023/05/14 05:50:54;;;;;;;13.25;11.90;;;;;;;;;;5279675;28;20275;-70
2023/05/14 05:53:25;;;;;;;14.18;12.23;;;;;;;;;;5282091;28;20475;-70
2023/05/14 05:55:56;;;;;;;13.90;12.35;;;;;;;;;;5282007;28;20467;-70
2023/05/14 05:58:27;;;;;;;13.50;12.15;;;;;;;;;;5281576;28;20087;-70
2023/05/14 06:00:59;;;;;;;16.20;12.82;;;;;;;;;;5281954;28;20267;-70
2023/05/14 06:03:30;;;;;;;12.18;10.90;;;;;;;;;;5282152;28;20101;-70
2023/05/14 06:06:01;;;;;;;15.25;13.63;;;;;;;;;;5281466;28;20025;-70
2023/05/14 06:08:32;;;;;;;16.52;12.85;;;;;;;;;;5281864;28;20308;-70
2023/05/14 06:11:04;;;;;;;14.57;12.45;;;;;;;;;;5282018;28;20093;-70
2023/05/14 06:13:35;;;;;;;12.50;11.20;;;;;;;;;;5281114;28;20046;-70
2023/05/14 06:16:06;;;;;;;14.05;12.48;;;;;;;;;;5281950;28;20016;-70
2023/05/14 06:18:37;;;;;;;13.63;12.20;;;;;;;;;;5280750;28;20060;-70
2023/05/14 06:21:09;;;;;;;14.00;11.70;;;;;;;;;;5282174;28;20543;-70
2023/05/14 06:23:40;;;;;;;13.00;11.68;;;;;;;;;;5281577;28;20029;-70
2023/05/14 06:26:11;;;;;;;12.70;11.10;;;;;;;;;;5281357;28;20024;-70
2023/05/14 06:28:43;;;;;;;12.07;10.88;;;;;;;;;;5281625;28;20067;-70
2023/05/14 06:31:14;;;;;;;13.82;11.23;;;;;;;;;;5281919;28;20078;-70
2023/05/14 06:33:45;;;;;;;12.55;10.50;;;;;;;;;;5280698;28;20356;-70
2023/05/14 06:36:17;;;;;;;11.57;10.47;;;;;;;;;;5281801;28;20672;-71
2023/05/14 06:38:48;;;;;;;11.55;10.30;;;;;;;;;;5281215;28;21209;-70
2023/05/14 06:41:20;;;;;;;12.37;11.13;;;;;;;;;;5281288;28;20621;-70
2023/05/14 06:43:51;;;;;;;14.40;11.57;;;;;;;;;;5281416;28;20266;-70
2023/05/14 06:46:22;;;;;;;15.27;12.02;;;;;;;;;;5281819;28;20058;-70
2023/05/14 06:48:53;;;;;;;13.15;11.13;;;;;;;;;;5280339;28;20040;-70
2023/05/14 06:51:24;;;;;;;12.27;10.70;;;;;;;;;;5282004;28;20025;-70
2023/05/14 06:53:56;;;;;;;12.57;10.73;;;;;;;;;;5280636;28;20024;-70
2023/05/14 06:56:27;;;;;;;13.40;10.82;;;;;;;;;;5282463;28;20048;-70
2023/05/14 06:58:58;;;;;;;11.47;9.67;;;;;;;;;;5285186;28;20052;-70
2023/05/14 07:01:29;;;;;;;13.68;10.80;;;;;;;;;;5284763;28;20263;-70
2023/05/14 07:04:00;;;;;;;12.23;10.73;;;;;;;;;;5285525;28;20021;-70
2023/05/14 07:06:31;;;;;;;13.07;11.33;;;;;;;;;;5285545;28;20525;-70
2023/05/14 07:09:03;;;;;;;13.15;11.65;;;;;;;;;;5284645;28;20820;-70
2023/05/14 07:11:34;;;;;;;13.40;9.98;;;;;;;;;;5285795;28;20100;-70
2023/05/14 07:14:05;;;;;;;12.02;10.38;;;;;;;;;;5285240;28;20029;-70
2023/05/14 07:16:36;;;;;;;10.60;9.57;;;;;;;;;;5284581;28;20096;-70
2023/05/14 07:19:07;;;;;;;11.65;10.02;;;;;;;;;;5285194;28;20029;-70
2023/05/14 07:21:39;;;;;;;11.13;9.97;;;;;;;;;;5284944;28;20024;-71
2023/05/14 07:24:10;;;;;;;11.70;9.85;;;;;;;;;;5284653;28;20293;-70
2023/05/14 07:26:41;;;;;;;13.20;10.70;;;;;;;;;;5284744;28;20032;-70
2023/05/14 07:29:12;;;;;;;11.93;10.23;;;;;;;;;;5284672;28;20677;-70
2023/05/14 07:31:43;;;;;;;15.33;10.57;;;;;;;;;;5284792;28;20317;-70
2023/05/14 07:34:15;;;;;;;13.50;10.85;;;;;;;;;;5285307;28;20349;-70
2023/05/14 07:36:46;;;;;;;13.80;11.55;;;;;;;;;;5283691;28;20266;-70
2023/05/14 07:39:17;;;;;;;12.18;10.73;;;;;;;;;;5284988;28;20486;-70
2023/05/14 07:41:49;;;;;;;12.25;10.88;;;;;;;;;;5284608;28;20545;-70
2023/05/14 07:44:20;;;;;;;10.60;9.65;;;;;;;;;;5284459;28;20012;-70
2023/05/14 07:46:51;;;;;;;12.10;10.90;;;;;;;;;;5284470;28;20024;-71
2023/05/14 07:49:22;;;;;;;11.03;9.93;;;;;;;;;;5284933;28;20278;-70
2023/05/14 07:51:53;;;;;;;11.37;10.13;;;;;;;;;;5283643;28;20369;-70
2023/05/14 07:54:24;;;;;;;10.47;9.47;;;;;;;;;;5284965;28;20274;-70
2023/05/14 07:56:56;;;;;;;11.30;10.13;;;;;;;;;;5283960;28;20283;-70
2023/05/14 07:59:27;;;;;;;13.68;10.75;;;;;;;;;;5284002;28;20842;-70
2023/05/14 08:01:58;;;;;;;12.20;10.13;;;;;;;;;;5279437;28;20028;-69
2023/05/14 08:04:29;;;;;;;10.67;9.67;;;;;;;;;;5283623;28;20267;-70
2023/05/14 08:07:00;;;;;;;11.55;9.00;;;;;;;;;;5260937;28;20317;-70
2023/05/14 08:09:32;;;;;;;10.77;9.67;;;;;;;;;;5274874;28;20452;-70
2023/05/14 08:12:03;;;;;;;11.67;9.53;;;;;;;;;;5261404;28;20622;-69
2023/05/14 08:14:34;;;;;;;10.95;9.30;;;;;;;;;;5262585;28;20417;-70
2023/05/14 08:17:05;;;;;;;11.00;9.88;;;;;;;;;;5261848;28;20947;-69
2023/05/14 08:19:37;;;;;;;14.25;9.50;;;;;;;;;;5260676;28;20131;-69
2023/05/14 08:22:08;;;;;;;12.18;9.07;;;;;;;;;;5261401;28;20013;-69
2023/05/14 08:24:39;;;;;;;10.32;7.90;;;;;;;;;;5261973;28;20013;-69
2023/05/14 08:27:10;;;;;;;11.75;9.93;;;;;;;;;;5262242;28;20448;-69
2023/05/14 08:29:41;;;;;;;12.63;9.03;;;;;;;;;;5262444;28;20460;-69
2023/05/14 08:32:12;;;;;;;14.77;10.00;;;;;;;;;;5261629;28;20626;-69
2023/05/14 08:34:44;;;;;;;10.57;8.80;;;;;;;;;;5262226;28;20279;-69
2023/05/14 08:37:15;;;;;;;8.70;7.57;;;;;;;;;;5262712;28;20494;-70
2023/05/14 08:39:46;;;;;;;13.17;7.87;;;;;;;;;;5259977;28;20029;-70
2023/05/14 08:42:19;;;;;;;11.43;8.37;;;;;;;;;;5263318;28;20283;-70
2023/05/14 08:45:03;;;;;;;10.65;8.10;;;;;;;;;;5262007;28;20259;-69
2023/05/14 08:47:34;;;;;;;11.23;7.95;;;;;;;;;;5261788;28;20104;-70
2023/05/14 08:50:07;;;;;;;10.13;8.63;;;;;;;;;;5262465;28;20515;-69
2023/05/14 08:52:38;;;;;;;8.23;7.32;;;;;;;;;;5262430;28;20077;-69
2023/05/14 08:55:10;;;;;;;10.20;7.35;;;;;;;;;;5262174;28;20104;-69
2023/05/14 08:57:41;;;;;;;7.97;5.88;;;;;;;;;;5261967;28;20112;-69
2023/05/14 09:00:14;;;;;;;11.23;6.82;;;;;;;;;;5262542;28;20488;-69
2023/05/14 09:02:46;;;;;;;5.25;3.42;;;;;;;;;;5260980;28;20020;-70
2023/05/14 09:05:18;;;;;;;7.68;4.93;;;;;;;;;;5262900;28;20029;-69
2023/05/14 09:07:49;;;;;;;6.13;3.75;;;;;;;;;;5261325;28;20021;-69
2023/05/14 09:10:21;;;;;;;4.17;3.60;;;;;;;;;;5262532;28;20397;-70
2023/05/14 09:12:52;;;;;;;6.32;3.13;;;;;;;;;;5261722;28;20275;-70
2023/05/14 09:15:25;;;;;;;6.70;3.67;;;;;;;;;;5261798;28;20459;-71
2023/05/14 09:17:56;;;;;;;6.00;3.40;;;;;;;;;;5261805;28;20383;-71
2023/05/14 09:20:27;;;;;;;5.45;3.97;;;;;;;;;;5261565;28;20108;-71
2023/05/14 09:22:59;;;;;;;5.85;3.55;;;;;;;;;;5260988;28;20444;-71
2023/05/14 09:25:30;;;;;;;6.85;3.38;;;;;;;;;;5261906;28;20027;-71
2023/05/14 09:28:04;;;;;;;6.30;3.80;;;;;;;;;;5261240;28;20017;-71
2023/05/14 09:30:36;;;;;;;8.25;3.55;;;;;;;;;;5260919;28;20017;-71
2023/05/14 09:33:09;;;;;;;3.80;3.38;;;;;;;;;;5261566;28;20418;-70
2023/05/14 09:35:42;;;;;;;5.88;2.85;;;;;;;;;;5260680;28;20361;-71
2023/05/14 09:38:13;;;;;;;4.10;3.00;;;;;;;;;;5262108;28;20443;-70
2023/05/14 09:40:45;;;;;;;9.45;2.95;;;;;;;;;;5261361;28;20112;-71
2023/05/14 09:43:16;;;;;;;8.35;3.72;;;;;;;;;;5259284;28;20638;-71
2023/05/14 09:45:47;;;;;;;4.63;2.75;;;;;;;;;;5259119;28;20020;-71
2023/05/14 09:48:19;;;;;;;5.13;2.95;;;;;;;;;;5259485;28;20009;-71
2023/05/14 09:50:51;;;;;;;5.13;3.43;;;;;;;;;;5258353;28;20013;-71
2023/05/14 09:53:22;;;;;;;4.43;2.63;;;;;;;;;;5259597;28;20297;-71
2023/05/14 09:55:53;;;;;;;5.27;2.67;;;;;;;;;;5258944;28;20047;-71
2023/05/14 09:58:25;;;;;;;4.18;1.90;;;;;;;;;;5260241;28;20084;-71
2023/05/14 10:00:57;;;;;;;5.70;2.78;;;;;;;;;;5260964;28;20096;-71
2023/05/14 10:03:28;;;;;;;6.18;2.05;;;;;;;;;;5261703;28;20017;-71
2023/05/14 10:06:03;;;;;;;4.15;2.35;;;;;;;;;;5260552;28;20017;-71
2023/05/14 10:08:35;;;;;;;6.55;3.20;;;;;;;;;;5260995;28;20075;-71
2023/05/14 10:11:10;;;;;;;5.15;2.58;;;;;;;;;;5260377;28;20024;-70
2023/05/14 10:13:44;;;;;;;5.88;2.80;;;;;;;;;;5260965;28;20423;-70
2023/05/14 10:16:20;;;;;;;4.63;2.20;;;;;;;;;;5261563;28;20361;-71
2023/05/14 10:18:55;;;;;;;7.22;2.47;;;;;;;;;;5259642;28;20143;-71
2023/05/14 10:21:28;;;;;;;5.38;3.20;;;;;;;;;;5261153;28;20099;-71
2023/05/14 10:24:00;;;;;;;5.30;2.40;;;;;;;;;;5260270;28;20024;-70
2023/05/14 10:26:31;;;;;;;4.78;2.40;;;;;;;;;;5260285;28;20467;-71
2023/05/14 10:29:02;;;;;;;5.05;2.55;;;;;;;;;;5260941;28;20025;-71
2023/05/14 10:31:49;;;;;;;3.77;2.50;;;;;;;;;;5260861;28;20023;-71
2023/05/14 10:34:30;;;;;;;3.28;1.50;;;;;;;;;;5261355;28;20267;-70
2023/05/14 10:37:02;;;;;;;6.00;2.30;;;;;;;;;;5260940;28;20361;-70
2023/05/14 10:39:39;;;;;;;3.63;1.90;;;;;;;;;;5259882;28;20028;-69
2023/05/14 10:42:12;;;;;;;5.20;1.60;;;;;;;;;;5260954;28;20376;-70
2023/05/14 10:45:04;;;;;;;9.40;2.58;;;;;;;;;;5260671;28;20481;-70
2023/05/14 10:47:40;;;;;;;5.60;2.38;;;;;;;;;;5259997;28;20075;-69
2023/05/14 10:50:12;;;;;;;5.00;2.00;;;;;;;;;;5260897;28;20017;-69
2023/05/14 10:52:44;;;;;;;4.22;2.90;;;;;;;;;;5259830;28;20039;-69
2023/05/14 10:55:16;;;;;;;3.67;2.67;;;;;;;;;;5260329;28;20104;-70
2023/05/14 10:57:47;;;;;;;4.10;2.80;;;;;;;;;;5259942;28;20136;-70
2023/05/14 11:00:19;;;;;;;4.38;2.80;;;;;;;;;;5259860;28;20498;-69
2023/05/14 11:02:54;;;;;;;5.10;2.63;;;;;;;;;;5259581;28;20009;-69
2023/05/14 11:05:26;;;;;;;4.35;2.00;;;;;;;;;;5260673;28;20110;-70
2023/05/14 11:07:58;;;;;;;2.95;2.33;;;;;;;;;;5259761;28;20013;-70
2023/05/14 11:10:29;;;;;;;3.97;2.05;;;;;;;;;;5260544;28;20071;-69
2023/05/14 11:13:01;;;;;;;6.65;2.10;;;;;;;;;;5260606;28;20463;-69
2023/05/14 11:15:32;;;;;;;4.00;1.48;;;;;;;;;;5259641;28;20021;-70
2023/05/14 11:18:03;;;;;;;4.37;1.93;;;;;;;;;;5260503;28;20024;-70
2023/05/14 11:20:35;;;;;;;4.45;1.88;;;;;;;;;;5260381;28;20333;-70
2023/05/14 11:23:08;;;;;;;5.43;2.57;;;;;;;;;;5259758;28;20017;-70
2023/05/14 11:25:39;;;;;;;4.65;2.75;;;;;;;;;;5260025;28;20271;-69
2023/05/14 11:28:10;;;;;;;3.40;2.20;;;;;;;;;;5259061;28;20024;-69
2023/05/14 11:30:42;;;;;;;5.05;2.20;;;;;;;;;;5260211;28;20272;-70
2023/05/14 11:33:13;;;;;;;3.92;2.50;;;;;;;;;;5260097;28;20037;-69
2023/05/14 11:35:45;;;;;;;3.23;2.30;;;;;;;;;;5258857;28;20028;-70
2023/05/14 11:38:17;;;;;;;2.95;1.80;;;;;;;;;;5260281;28;20310;-69
2023/05/14 11:40:52;;;;;;;3.00;1.85;;;;;;;;;;5259930;28;20029;-69
2023/05/14 11:43:25;;;;;;;4.53;2.03;;;;;;;;;;5261548;28;20017;-70
2023/05/14 11:45:56;;;;;;;2.80;2.22;;;;;;;;;;5263901;28;20096;-69
2023/05/14 11:48:27;;;;;;;3.30;1.88;;;;;;;;;;5264164;28;20100;-69
2023/05/14 11:50:58;;;;;;;3.00;1.83;;;;;;;;;;5262796;28;20055;-70
2023/05/14 11:53:29;;;;;;;6.73;2.13;;;;;;;;;;5264103;28;20021;-70
2023/05/14 11:56:01;;;;;;;4.53;1.65;;;;;;;;;;5263978;28;20104;-69
2023/05/14 11:58:33;;;;;;;3.05;1.70;;;;;;;;;;5262634;28;20087;-69
2023/05/14 12:01:04;;;;;;;3.72;1.88;;;;;;;;;;5263658;28;20023;-70
2023/05/14 12:03:35;;;;;;;4.88;2.40;;;;;;;;;;5262741;28;20013;-70
2023/05/14 12:06:07;;;;;;;4.60;2.08;;;;;;;;;;5263769;28;20107;-69
2023/05/14 12:08:39;;;;;;;3.53;1.60;;;;;;;;;;5263153;28;20057;-69
2023/05/14 12:11:10;;;;;;;3.37;1.60;;;;;;;;;;5262920;28;20746;-69
2023/05/14 12:13:41;;;;;;;2.73;1.17;;;;;;;;;;5263182;28;20365;-69
2023/05/14 12:16:12;;;;;;;2.80;1.02;;;;;;;;;;5263664;28;20044;-69
2023/05/14 12:18:43;;;;;;;2.20;1.20;;;;;;;;;;5262297;28;20033;-71
2023/05/14 12:21:14;;;;;;;7.13;1.93;;;;;;;;;;5263571;28;20057;-69
2023/05/14 12:23:46;;;;;;;2.50;1.10;;;;;;;;;;5262620;28;20025;-69
2023/05/14 12:26:17;;;;;;;4.00;1.00;;;;;;;;;;5262225;28;20310;-70
2023/05/14 12:28:48;;;;;;;3.72;1.45;;;;;;;;;;5262759;28;20275;-69
2023/05/14 12:31:26;;;;;;;2.95;1.35;;;;;;;;;;5263327;28;20452;-69
2023/05/14 12:33:57;;;;;;;2.60;1.23;;;;;;;;;;5262863;28;20522;-70
2023/05/14 12:36:31;;;;;;;2.87;1.20;;;;;;;;;;5263379;28;20017;-69
2023/05/14 12:39:02;;;;;;;1.58;0.98;;;;;;;;;;5262151;28;20314;-70
2023/05/14 12:41:34;;;;;;;5.32;1.15;;;;;;;;;;5263154;28;20088;-70
2023/05/14 12:44:05;;;;;;;2.10;0.90;;;;;;;;;;5262960;28;20027;-70
2023/05/14 12:46:37;;;;;;;3.05;1.00;;;;;;;;;;5262204;28;20024;-70
2023/05/14 12:49:08;;;;;;;3.15;0.60;;;;;;;;;;5262613;28;20021;-70
2023/05/14 12:51:39;;;;;;;2.47;0.70;;;;;;;;;;5262306;28;20448;-69
2023/05/14 12:54:11;;;;;;;2.55;0.60;;;;;;;;;;5261083;28;20021;-69
2023/05/14 12:56:42;;;;;;;1.83;0.60;;;;;;;;;;5262123;28;20456;-69
2023/05/14 12:59:13;;;;;;;2.80;0.70;;;;;;;;;;5262898;28;20071;-69
2023/05/14 13:01:45;;;;;;;2.47;0.70;;;;;;;;;;5261484;28;20091;-69
2023/05/14 13:04:16;;;;;;;1.57;0.77;;;;;;;;;;5262853;28;20031;-70
2023/05/14 13:06:47;;;;;;;3.30;1.00;;;;;;;;;;5261524;28;20306;-70
2023/05/14 13:09:18;;;;;;;3.17;0.55;;;;;;;;;;5262725;28;20021;-69
2023/05/14 13:11:49;;;;;;;3.15;0.60;;;;;;;;;;5262131;28;20041;-69
2023/05/14 13:14:21;;;;;;;2.42;0.60;;;;;;;;;;5261701;28;20013;-70
2023/05/14 13:16:52;;;;;;;1.17;0.57;;;;;;;;;;5262092;28;20341;-69
2023/05/14 13:19:23;;;;;;;3.43;0.70;;;;;;;;;;5262497;28;20294;-69
2023/05/14 13:21:54;;;;;;;3.97;0.70;;;;;;;;;;5261091;28;20017;-69
2023/05/14 13:24:25;;;;;;;4.43;1.87;;;;;;;;;;5262359;28;20628;-69
2023/05/14 13:26:57;;;;;;;4.70;1.00;;;;;;;;;;5261779;28;20272;-69
2023/05/14 13:29:28;;;;;;;5.33;1.17;;;;;;;;;;5261781;28;20387;-69
2023/05/14 13:31:59;;;;;;;4.78;0.90;;;;;;;;;;5261677;28;20100;-69
2023/05/14 13:34:31;;;;;;;2.60;0.70;;;;;;;;;;5261670;28;20013;-70
2023/05/14 13:37:02;;;;;;;3.97;1.00;;;;;;;;;;5260972;28;20028;-70
2023/05/14 13:39:34;;;;;;;2.53;0.80;;;;;;;;;;5261501;28;20116;-70
2023/05/14 13:42:05;;;;;;;3.08;0.80;;;;;;;;;;5260930;28;20175;-69
2023/05/14 13:44:36;;;;;;;5.03;1.00;;;;;;;;;;5261655;28;20104;-69
2023/05/14 13:47:07;;;;;;;3.27;1.33;;;;;;;;;;5261579;28;20048;-69
2023/05/14 13:49:39;;;;;;;2.75;0.70;;;;;;;;;;5260228;28;20268;-70
2023/05/14 13:52:10;;;;;;;3.45;0.90;;;;;;;;;;5261620;28;20078;-69
2023/05/14 13:54:41;;;;;;;2.42;0.98;;;;;;;;;;5261031;28;20361;-70
2023/05/14 13:57:13;;;;;;;2.07;0.80;;;;;;;;;;5260907;28;20396;-70
2023/05/14 13:59:47;;;;;;;3.30;1.08;;;;;;;;;;5260881;28;20295;-73
2023/05/14 14:02:18;;;;;;;3.60;0.95;;;;;;;;;;5261573;28;20017;-69
2023/05/14 14:04:49;;;;;;;3.23;0.80;;;;;;;;;;5260494;28;20066;-70
2023/05/14 14:07:21;;;;;;;2.80;0.70;;;;;;;;;;5261397;28;20297;-69
2023/05/14 14:09:52;;;;;;;2.95;0.82;;;;;;;;;;5260466;28;20013;-71
2023/05/14 14:12:23;;;;;;;2.53;1.17;;;;;;;;;;5270256;28;20031;-69
2023/05/14 14:14:54;;;;;;;3.30;1.13;;;;;;;;;;5279004;28;20780;-70
2023/05/14 14:17:25;;;;;;;4.07;1.10;;;;;;;;;;5278048;28;20379;-69
2023/05/14 14:19:57;;;;;;;3.70;1.03;;;;;;;;;;5278091;28;20318;-70
2023/05/14 14:22:28;;;;;;;2.90;1.10;;;;;;;;;;5281444;28;20028;-70
2023/05/14 14:24:59;;;;;;;4.50;1.00;;;;;;;;;;5279738;28;20025;-70
2023/05/14 14:27:32;;;;;;;3.63;0.90;;;;;;;;;;5281469;28;20024;-69
2023/05/14 14:30:05;;;;;;;4.47;0.90;;;;;;;;;;5281027;28;20103;-69
2023/05/14 14:32:36;;;;;;;2.10;0.90;;;;;;;;;;5280231;28;20020;-69
2023/05/14 14:35:07;;;;;;;5.10;1.10;;;;;;;;;;5281418;28;20020;-69
2023/05/14 14:37:39;;;;;;;4.32;1.00;;;;;;;;;;5280969;28;20611;-69
2023/05/14 14:40:11;;;;;;;2.88;1.00;;;;;;;;;;5281290;28;20139;-69
2023/05/14 14:42:42;;;;;;;3.90;0.80;;;;;;;;;;5281673;28;20091;-69
2023/05/14 14:45:13;;;;;;;4.18;1.20;;;;;;;;;;5280326;28;20275;-69
2023/05/14 14:47:45;;;;;;;4.60;1.20;;;;;;;;;;5280148;28;20021;-69
2023/05/14 14:50:16;;;;;;;3.75;0.85;;;;;;;;;;5281468;28;20083;-70
2023/05/14 14:52:47;;;;;;;5.07;1.13;;;;;;;;;;5280340;28;20146;-70
2023/05/14 14:55:18;;;;;;;2.90;0.80;;;;;;;;;;5281879;28;20270;-70
2023/05/14 14:57:49;;;;;;;3.88;1.77;;;;;;;;;;5280784;28;20044;-71
2023/05/14 15:00:21;;;;;;;3.70;1.10;;;;;;;;;;5280957;28;20032;-70